sensor_id;sensor_type;location;lat;lon;timestamp;pressure;altitude;pressure_sealevel;temperature;humidity
40918;BME280;26644;50.248;19.032;2023-01-29T00:01:51;99005.97;;;-0.57;69.14
40918;BME280;26644;50.248;19.032;2023-01-29T00:04:57;98994.63;;;-0.74;69.02
40918;BME280;26644;50.248;19.032;2023-01-29T00:08:02;98991.66;;;-0.57;69.04
40918;BME280;26644;50.248;19.032;2023-01-29T00:11:08;98997.06;;;-0.57;68.26
40918;BME280;26644;50.248;19.032;2023-01-29T00:14:16;98999.56;;;-0.55;67.82
40918;BME280;26644;50.248;19.032;2023-01-29T00:17:23;98974.53;;;-0.71;67.15
40918;BME280;26644;50.248;19.032;2023-01-29T00:20:29;98999.75;;;-0.57;66.93
40918;BME280;26644;50.248;19.032;2023-01-29T00:23:35;99011.31;;;-0.63;66.88
40918;BME280;26644;50.248;19.032;2023-01-29T00:26:40;99010.09;;;-0.61;67.07
40918;BME280;26644;50.248;19.032;2023-01-29T00:29:49;99001.06;;;-0.75;66.66
40918;BME280;26644;50.248;19.032;2023-01-29T00:33:09;99016.63;;;-0.70;66.92
40918;BME280;26644;50.248;19.032;2023-01-29T00:36:17;99008.28;;;-0.75;66.64
40918;BME280;26644;50.248;19.032;2023-01-29T00:39:23;99016.84;;;-0.71;66.87
40918;BME280;26644;50.248;19.032;2023-01-29T00:42:40;99018.91;;;-0.74;66.49
40918;BME280;26644;50.248;19.032;2023-01-29T00:46:02;99022.63;;;-0.75;66.34
40918;BME280;26644;50.248;19.032;2023-01-29T00:49:08;99013.81;;;-0.83;67.24
40918;BME280;26644;50.248;19.032;2023-01-29T00:52:14;99016.44;;;-0.90;68.17
40918;BME280;26644;50.248;19.032;2023-01-29T00:55:28;99033.81;;;-0.93;68.60
40918;BME280;26644;50.248;19.032;2023-01-29T00:58:33;99000.56;;;-1.00;68.58
40918;BME280;26644;50.248;19.032;2023-01-29T01:01:41;99025.75;;;-0.93;68.66
40918;BME280;26644;50.248;19.032;2023-01-29T01:04:59;99034.84;;;-0.94;68.71
40918;BME280;26644;50.248;19.032;2023-01-29T01:08:08;99038.00;;;-0.90;68.75
40918;BME280;26644;50.248;19.032;2023-01-29T01:11:26;99036.72;;;-0.94;68.68
40918;BME280;26644;50.248;19.032;2023-01-29T01:14:32;99042.69;;;-0.99;68.91
40918;BME280;26644;50.248;19.032;2023-01-29T01:17:40;99041.50;;;-1.11;68.82
40918;BME280;26644;50.248;19.032;2023-01-29T01:20:47;99042.25;;;-1.17;69.33
40918;BME280;26644;50.248;19.032;2023-01-29T01:23:52;99036.69;;;-1.16;69.26
40918;BME280;26644;50.248;19.032;2023-01-29T01:26:57;99027.09;;;-1.18;68.87
40918;BME280;26644;50.248;19.032;2023-01-29T01:30:03;99023.19;;;-1.16;68.27
40918;BME280;26644;50.248;19.032;2023-01-29T01:33:12;99009.19;;;-1.26;68.24
40918;BME280;26644;50.248;19.032;2023-01-29T01:36:19;99029.59;;;-1.17;67.91
40918;BME280;26644;50.248;19.032;2023-01-29T01:39:25;99020.50;;;-1.16;67.84
40918;BME280;26644;50.248;19.032;2023-01-29T01:42:31;99030.16;;;-1.21;67.13
40918;BME280;26644;50.248;19.032;2023-01-29T01:45:38;99024.34;;;-1.25;67.09
40918;BME280;26644;50.248;19.032;2023-01-29T01:48:56;99003.25;;;-1.36;67.00
40918;BME280;26644;50.248;19.032;2023-01-29T01:52:08;99001.88;;;-1.47;66.91
40918;BME280;26644;50.248;19.032;2023-01-29T01:55:19;99013.66;;;-1.33;67.09
40918;BME280;26644;50.248;19.032;2023-01-29T01:58:33;99013.41;;;-1.38;66.76
40918;BME280;26644;50.248;19.032;2023-01-29T02:01:46;99013.59;;;-1.40;66.49
40918;BME280;26644;50.248;19.032;2023-01-29T02:04:58;98998.44;;;-1.41;66.73
40918;BME280;26644;50.248;19.032;2023-01-29T02:08:23;98994.88;;;-1.42;66.38
40918;BME280;26644;50.248;19.032;2023-01-29T02:11:47;98986.81;;;-1.42;66.49
40918;BME280;26644;50.248;19.032;2023-01-29T02:14:52;99002.16;;;-1.42;66.37
40918;BME280;26644;50.248;19.032;2023-01-29T02:17:58;98993.50;;;-1.52;66.33
40918;BME280;26644;50.248;19.032;2023-01-29T02:21:29;98997.31;;;-1.47;66.52
40918;BME280;26644;50.248;19.032;2023-01-29T02:25:02;98991.19;;;-1.41;66.46
40918;BME280;26644;50.248;19.032;2023-01-29T02:28:41;98989.16;;;-1.38;66.28
40918;BME280;26644;50.248;19.032;2023-01-29T02:32:07;98979.38;;;-1.39;65.86
40918;BME280;26644;50.248;19.032;2023-01-29T02:35:27;98992.38;;;-1.43;65.40
40918;BME280;26644;50.248;19.032;2023-01-29T02:38:46;98963.81;;;-1.59;65.16
40918;BME280;26644;50.248;19.032;2023-01-29T02:42:08;98974.78;;;-1.61;65.46
40918;BME280;26644;50.248;19.032;2023-01-29T02:45:31;98983.50;;;-1.59;65.06
40918;BME280;26644;50.248;19.032;2023-01-29T02:48:54;98983.69;;;-1.60;64.76
40918;BME280;26644;50.248;19.032;2023-01-29T02:52:08;98962.53;;;-1.78;64.84
40918;BME280;26644;50.248;19.032;2023-01-29T02:55:27;99002.16;;;-1.57;64.75
40918;BME280;26644;50.248;19.032;2023-01-29T02:58:42;98988.91;;;-1.59;64.14
40918;BME280;26644;50.248;19.032;2023-01-29T03:02:00;99010.25;;;-1.57;63.52
40918;BME280;26644;50.248;19.032;2023-01-29T03:05:14;99009.78;;;-1.61;63.16
40918;BME280;26644;50.248;19.032;2023-01-29T03:08:29;99001.78;;;-1.54;63.14
40918;BME280;26644;50.248;19.032;2023-01-29T03:11:47;99008.00;;;-1.53;61.96
40918;BME280;26644;50.248;19.032;2023-01-29T03:15:00;98996.97;;;-1.59;61.69
40918;BME280;26644;50.248;19.032;2023-01-29T03:18:35;98996.03;;;-1.66;61.37
40918;BME280;26644;50.248;19.032;2023-01-29T03:21:50;99012.75;;;-1.55;61.26
40918;BME280;26644;50.248;19.032;2023-01-29T03:25:02;99023.72;;;-1.57;60.79
40918;BME280;26644;50.248;19.032;2023-01-29T03:28:24;99029.00;;;-1.64;60.26
40918;BME280;26644;50.248;19.032;2023-01-29T03:31:46;99025.84;;;-1.67;60.24
40918;BME280;26644;50.248;19.032;2023-01-29T03:35:11;99035.31;;;-1.71;60.01
40918;BME280;26644;50.248;19.032;2023-01-29T03:38:36;99004.41;;;-1.76;60.32
40918;BME280;26644;50.248;19.032;2023-01-29T03:41:49;98989.47;;;-1.78;59.69
40918;BME280;26644;50.248;19.032;2023-01-29T03:45:07;99020.47;;;-1.67;59.10
40918;BME280;26644;50.248;19.032;2023-01-29T03:48:32;99015.19;;;-1.76;58.75
40918;BME280;26644;50.248;19.032;2023-01-29T03:51:54;99015.81;;;-1.74;59.03
40918;BME280;26644;50.248;19.032;2023-01-29T03:55:12;99008.09;;;-1.77;58.56
40918;BME280;26644;50.248;19.032;2023-01-29T03:58:29;99008.50;;;-1.80;58.42
40918;BME280;26644;50.248;19.032;2023-01-29T04:01:46;98987.03;;;-1.88;58.73
40918;BME280;26644;50.248;19.032;2023-01-29T04:05:01;98996.53;;;-1.77;58.55
40918;BME280;26644;50.248;19.032;2023-01-29T04:08:27;99003.00;;;-1.86;57.16
40918;BME280;26644;50.248;19.032;2023-01-29T04:11:41;98994.47;;;-1.90;57.27
40918;BME280;26644;50.248;19.032;2023-01-29T04:14:53;98998.25;;;-1.84;57.45
40918;BME280;26644;50.248;19.032;2023-01-29T04:18:03;98995.75;;;-1.86;57.02
40918;BME280;26644;50.248;19.032;2023-01-29T04:21:19;98995.56;;;-1.84;57.36
40918;BME280;26644;50.248;19.032;2023-01-29T04:24:27;98993.69;;;-1.84;57.41
40918;BME280;26644;50.248;19.032;2023-01-29T04:27:42;98974.84;;;-1.84;57.30
40918;BME280;26644;50.248;19.032;2023-01-29T04:30:59;98970.72;;;-1.86;57.65
40918;BME280;26644;50.248;19.032;2023-01-29T04:34:20;98955.47;;;-1.94;57.38
40918;BME280;26644;50.248;19.032;2023-01-29T04:37:37;98944.53;;;-1.93;57.16
40918;BME280;26644;50.248;19.032;2023-01-29T04:41:00;98949.72;;;-1.91;57.09
40918;BME280;26644;50.248;19.032;2023-01-29T04:44:19;98938.28;;;-1.93;57.35
40918;BME280;26644;50.248;19.032;2023-01-29T04:47:41;98936.94;;;-1.89;57.50
40918;BME280;26644;50.248;19.032;2023-01-29T04:50:59;98927.44;;;-1.85;57.59
40918;BME280;26644;50.248;19.032;2023-01-29T04:54:22;98926.69;;;-1.79;57.53
40918;BME280;26644;50.248;19.032;2023-01-29T04:57:49;98914.44;;;-1.81;57.29
40918;BME280;26644;50.248;19.032;2023-01-29T05:01:04;98920.66;;;-1.81;57.37
40918;BME280;26644;50.248;19.032;2023-01-29T05:04:17;98925.84;;;-1.79;57.46
40918;BME280;26644;50.248;19.032;2023-01-29T05:07:29;98930.31;;;-1.71;57.45
40918;BME280;26644;50.248;19.032;2023-01-29T05:10:36;98934.84;;;-1.72;57.61
40918;BME280;26644;50.248;19.032;2023-01-29T05:13:48;98931.78;;;-1.69;57.70
40918;BME280;26644;50.248;19.032;2023-01-29T05:16:56;98913.41;;;-1.80;57.46
40918;BME280;26644;50.248;19.032;2023-01-29T05:20:08;98945.53;;;-1.64;57.61
40918;BME280;26644;50.248;19.032;2023-01-29T05:23:16;98943.38;;;-1.68;57.60
40918;BME280;26644;50.248;19.032;2023-01-29T05:26:22;98929.38;;;-1.79;57.70
40918;BME280;26644;50.248;19.032;2023-01-29T05:29:45;98950.25;;;-1.66;57.91
40918;BME280;26644;50.248;19.032;2023-01-29T05:32:51;98957.78;;;-1.61;57.99
40918;BME280;26644;50.248;19.032;2023-01-29T05:35:58;98846.00;;;-2.23;57.68
40918;BME280;26644;50.248;19.032;2023-01-29T05:39:04;98941.63;;;-1.61;57.68
40918;BME280;26644;50.248;19.032;2023-01-29T05:42:09;98941.13;;;-1.50;57.82
40918;BME280;26644;50.248;19.032;2023-01-29T05:45:18;98938.25;;;-1.48;57.88
40918;BME280;26644;50.248;19.032;2023-01-29T05:48:24;98943.63;;;-1.48;57.96
40918;BME280;26644;50.248;19.032;2023-01-29T05:51:33;98938.56;;;-1.58;57.98
40918;BME280;26644;50.248;19.032;2023-01-29T05:54:41;98944.56;;;-1.56;58.12
40918;BME280;26644;50.248;19.032;2023-01-29T05:57:46;98948.13;;;-1.55;58.11
40918;BME280;26644;50.248;19.032;2023-01-29T06:00:54;98947.47;;;-1.58;58.33
40918;BME280;26644;50.248;19.032;2023-01-29T06:04:00;98953.13;;;-1.52;58.39
40918;BME280;26644;50.248;19.032;2023-01-29T06:07:05;98957.28;;;-1.50;58.53
40918;BME280;26644;50.248;19.032;2023-01-29T06:10:11;98960.00;;;-1.50;58.63
40918;BME280;26644;50.248;19.032;2023-01-29T06:13:17;98961.38;;;-1.54;58.89
40918;BME280;26644;50.248;19.032;2023-01-29T06:16:25;98940.97;;;-1.63;59.09
40918;BME280;26644;50.248;19.032;2023-01-29T06:19:30;98956.28;;;-1.49;59.19
40918;BME280;26644;50.248;19.032;2023-01-29T06:22:36;98942.06;;;-1.58;59.07
40918;BME280;26644;50.248;19.032;2023-01-29T06:25:41;98965.09;;;-1.55;59.25
40918;BME280;26644;50.248;19.032;2023-01-29T06:28:48;98953.22;;;-1.61;59.18
40918;BME280;26644;50.248;19.032;2023-01-29T06:31:56;98968.44;;;-1.53;59.08
40918;BME280;26644;50.248;19.032;2023-01-29T06:35:03;98968.91;;;-1.49;59.37
40918;BME280;26644;50.248;19.032;2023-01-29T06:38:10;98949.06;;;-1.63;59.56
40918;BME280;26644;50.248;19.032;2023-01-29T06:41:17;98971.78;;;-1.51;59.77
40918;BME280;26644;50.248;19.032;2023-01-29T06:44:25;98948.84;;;-1.62;60.05
40918;BME280;26644;50.248;19.032;2023-01-29T06:47:34;98963.97;;;-1.46;60.14
40918;BME280;26644;50.248;19.032;2023-01-29T06:50:38;98938.81;;;-1.53;60.13
40918;BME280;26644;50.248;19.032;2023-01-29T06:53:44;98957.38;;;-1.43;59.91
40918;BME280;26644;50.248;19.032;2023-01-29T06:56:50;98949.59;;;-1.53;60.16
40918;BME280;26644;50.248;19.032;2023-01-29T06:59:57;98962.13;;;-1.45;60.25
40918;BME280;26644;50.248;19.032;2023-01-29T07:03:05;98959.25;;;-1.44;60.46
40918;BME280;26644;50.248;19.032;2023-01-29T07:06:10;98934.47;;;-1.54;60.50
40918;BME280;26644;50.248;19.032;2023-01-29T07:09:15;98951.72;;;-1.48;60.64
40918;BME280;26644;50.248;19.032;2023-01-29T07:12:21;98979.19;;;-1.38;61.22
40918;BME280;26644;50.248;19.032;2023-01-29T07:15:26;98964.63;;;-1.44;62.04
40918;BME280;26644;50.248;19.032;2023-01-29T07:18:35;98955.06;;;-1.46;62.60
40918;BME280;26644;50.248;19.032;2023-01-29T07:21:40;98941.53;;;-1.53;62.87
40918;BME280;26644;50.248;19.032;2023-01-29T07:24:46;98977.59;;;-1.32;63.47
40918;BME280;26644;50.248;19.032;2023-01-29T07:27:51;98984.38;;;-1.36;64.72
40918;BME280;26644;50.248;19.032;2023-01-29T07:30:57;98980.13;;;-1.46;65.66
40918;BME280;26644;50.248;19.032;2023-01-29T07:34:04;98977.00;;;-1.49;66.60
40918;BME280;26644;50.248;19.032;2023-01-29T07:37:10;98981.44;;;-1.57;67.38
40918;BME280;26644;50.248;19.032;2023-01-29T07:40:16;98977.38;;;-1.67;68.39
40918;BME280;26644;50.248;19.032;2023-01-29T07:43:22;98982.69;;;-1.74;68.73
40918;BME280;26644;50.248;19.032;2023-01-29T07:46:27;98987.88;;;-1.72;69.05
40918;BME280;26644;50.248;19.032;2023-01-29T07:49:36;98992.25;;;-1.71;69.38
40918;BME280;26644;50.248;19.032;2023-01-29T07:52:41;98986.47;;;-1.68;69.64
40918;BME280;26644;50.248;19.032;2023-01-29T07:55:46;98990.47;;;-1.64;69.67
40918;BME280;26644;50.248;19.032;2023-01-29T07:58:51;98977.09;;;-1.72;69.78
40918;BME280;26644;50.248;19.032;2023-01-29T08:01:57;98999.75;;;-1.52;69.79
40918;BME280;26644;50.248;19.032;2023-01-29T08:05:05;98983.13;;;-1.55;69.85
40918;BME280;26644;50.248;19.032;2023-01-29T08:08:12;99010.50;;;-1.37;68.91
40918;BME280;26644;50.248;19.032;2023-01-29T08:11:17;99003.16;;;-1.43;68.28
40918;BME280;26644;50.248;19.032;2023-01-29T08:14:23;99026.09;;;-1.32;67.98
40918;BME280;26644;50.248;19.032;2023-01-29T08:17:28;99033.34;;;-1.33;68.10
40918;BME280;26644;50.248;19.032;2023-01-29T08:20:36;99030.06;;;-1.28;67.94
40918;BME280;26644;50.248;19.032;2023-01-29T08:23:41;99013.00;;;-1.35;67.69
40918;BME280;26644;50.248;19.032;2023-01-29T08:26:47;99026.09;;;-1.32;67.35
40918;BME280;26644;50.248;19.032;2023-01-29T08:29:52;99036.03;;;-1.33;67.15
40918;BME280;26644;50.248;19.032;2023-01-29T08:32:59;99023.41;;;-1.32;66.70
40918;BME280;26644;50.248;19.032;2023-01-29T08:36:09;99033.81;;;-1.29;66.49
40918;BME280;26644;50.248;19.032;2023-01-29T08:39:15;99026.09;;;-1.32;66.32
40918;BME280;26644;50.248;19.032;2023-01-29T08:42:20;99030.66;;;-1.33;66.53
40918;BME280;26644;50.248;19.032;2023-01-29T08:45:26;99030.66;;;-1.33;66.61
40918;BME280;26644;50.248;19.032;2023-01-29T08:48:31;99004.75;;;-1.49;66.35
40918;BME280;26644;50.248;19.032;2023-01-29T08:51:40;99028.72;;;-1.24;66.21
40918;BME280;26644;50.248;19.032;2023-01-29T08:54:45;98962.97;;;-1.60;66.50
40918;BME280;26644;50.248;19.032;2023-01-29T08:57:50;99005.19;;;-1.30;66.63
40918;BME280;26644;50.248;19.032;2023-01-29T09:01:05;99020.13;;;-1.13;66.13
40918;BME280;26644;50.248;19.032;2023-01-29T09:04:11;99022.81;;;-1.13;65.74
40918;BME280;26644;50.248;19.032;2023-01-29T09:07:19;99026.25;;;-1.04;65.13
40918;BME280;26644;50.248;19.032;2023-01-29T09:10:25;99018.03;;;-0.96;64.81
40918;BME280;26644;50.248;19.032;2023-01-29T09:13:30;99001.53;;;-0.86;65.49
40918;BME280;26644;50.248;19.032;2023-01-29T09:16:36;98990.00;;;-0.80;64.64
40918;BME280;26644;50.248;19.032;2023-01-29T09:19:41;98991.34;;;-0.69;64.55
40918;BME280;26644;50.248;19.032;2023-01-29T09:22:50;98992.75;;;-0.51;64.33
40918;BME280;26644;50.248;19.032;2023-01-29T09:25:57;98985.06;;;-0.54;63.50
40918;BME280;26644;50.248;19.032;2023-01-29T09:29:02;98978.63;;;-0.75;63.73
40918;BME280;26644;50.248;19.032;2023-01-29T09:32:07;98989.09;;;-0.65;64.17
40918;BME280;26644;50.248;19.032;2023-01-29T09:35:13;98998.69;;;-0.63;64.37
40918;BME280;26644;50.248;19.032;2023-01-29T09:38:21;99003.88;;;-0.61;62.87
40918;BME280;26644;50.248;19.032;2023-01-29T09:41:42;98997.66;;;-0.62;62.40
40918;BME280;26644;50.248;19.032;2023-01-29T09:45:03;99014.28;;;-0.58;61.18
40918;BME280;26644;50.248;19.032;2023-01-29T09:48:17;99011.78;;;-0.60;60.90
40918;BME280;26644;50.248;19.032;2023-01-29T09:51:29;99003.88;;;-0.61;61.07
40918;BME280;26644;50.248;19.032;2023-01-29T09:54:53;98997.41;;;-0.67;59.86
40918;BME280;26644;50.248;19.032;2023-01-29T09:58:12;98990.72;;;-0.71;58.60
40918;BME280;26644;50.248;19.032;2023-01-29T10:01:31;98993.41;;;-0.71;58.58
40918;BME280;26644;50.248;19.032;2023-01-29T10:05:12;98985.28;;;-0.78;58.45
40918;BME280;26644;50.248;19.032;2023-01-29T10:09:06;98967.06;;;-0.69;58.39
40918;BME280;26644;50.248;19.032;2023-01-29T10:12:48;98943.66;;;-0.68;57.34
40918;BME280;26644;50.248;19.032;2023-01-29T10:16:18;98950.63;;;-0.74;57.20
40918;BME280;26644;50.248;19.032;2023-01-29T10:19:50;98948.66;;;-0.65;57.23
40918;BME280;26644;50.248;19.032;2023-01-29T10:23:19;98951.34;;;-0.65;56.19
40918;BME280;26644;50.248;19.032;2023-01-29T10:26:30;98936.00;;;-0.65;56.65
40918;BME280;26644;50.248;19.032;2023-01-29T10:29:43;98921.09;;;-0.61;57.19
40918;BME280;26644;50.248;19.032;2023-01-29T10:32:51;98915.63;;;-0.67;57.04
40918;BME280;26644;50.248;19.032;2023-01-29T10:36:02;98901.06;;;-0.73;57.28
40918;BME280;26644;50.248;19.032;2023-01-29T10:39:15;98880.47;;;-0.81;57.29
40918;BME280;26644;50.248;19.032;2023-01-29T10:42:29;98895.03;;;-0.75;56.63
40918;BME280;26644;50.248;19.032;2023-01-29T10:45:49;98879.84;;;-0.83;56.90
40918;BME280;26644;50.248;19.032;2023-01-29T10:49:19;98881.47;;;-0.60;56.64
40918;BME280;26644;50.248;19.032;2023-01-29T10:52:53;98877.00;;;-0.75;56.28
40918;BME280;26644;50.248;19.032;2023-01-29T10:56:24;98862.44;;;-0.80;56.79
40918;BME280;26644;50.248;19.032;2023-01-29T10:59:51;98847.81;;;-0.93;56.45
40918;BME280;26644;50.248;19.032;2023-01-29T11:03:16;98853.47;;;-0.87;56.48
40918;BME280;26644;50.248;19.032;2023-01-29T11:06:29;98846.16;;;-0.65;56.39
40918;BME280;26644;50.248;19.032;2023-01-29T11:09:43;98847.66;;;-0.63;55.06
40918;BME280;26644;50.248;19.032;2023-01-29T11:12:57;98834.41;;;-0.58;55.07
40918;BME280;26644;50.248;19.032;2023-01-29T11:16:05;98839.41;;;-0.54;54.79
40918;BME280;26644;50.248;19.032;2023-01-29T11:19:15;98830.19;;;-0.67;54.69
40918;BME280;26644;50.248;19.032;2023-01-29T11:22:22;98810.94;;;-0.57;54.45
40918;BME280;26644;50.248;19.032;2023-01-29T11:25:29;98796.72;;;-0.72;54.82
40918;BME280;26644;50.248;19.032;2023-01-29T11:28:38;98806.13;;;-0.68;55.12
40918;BME280;26644;50.248;19.032;2023-01-29T11:31:44;98795.78;;;-0.58;55.39
40918;BME280;26644;50.248;19.032;2023-01-29T11:35:02;98777.06;;;-0.66;54.71
40918;BME280;26644;50.248;19.032;2023-01-29T11:38:18;98801.63;;;-0.54;55.20
40918;BME280;26644;50.248;19.032;2023-01-29T11:41:27;98799.53;;;-0.59;55.31
40918;BME280;26644;50.248;19.032;2023-01-29T11:44:34;98772.28;;;-0.71;55.69
40918;BME280;26644;50.248;19.032;2023-01-29T11:47:48;98795.59;;;-0.57;55.65
40918;BME280;26644;50.248;19.032;2023-01-29T11:51:00;98792.22;;;-0.65;55.72
40918;BME280;26644;50.248;19.032;2023-01-29T11:54:16;98786.19;;;-0.67;56.05
40918;BME280;26644;50.248;19.032;2023-01-29T11:57:27;98794.69;;;-0.70;55.87
40918;BME280;26644;50.248;19.032;2023-01-29T12:00:40;98798.56;;;-0.80;56.59
40918;BME280;26644;50.248;19.032;2023-01-29T12:03:52;98808.13;;;-0.77;56.97
40918;BME280;26644;50.248;19.032;2023-01-29T12:07:01;98810.88;;;-0.70;56.85
40918;BME280;26644;50.248;19.032;2023-01-29T12:10:29;98800.72;;;-0.68;56.82
40918;BME280;26644;50.248;19.032;2023-01-29T12:13:37;98785.38;;;-0.68;57.11
40918;BME280;26644;50.248;19.032;2023-01-29T12:16:51;98800.03;;;-0.42;56.26
40918;BME280;26644;50.248;19.032;2023-01-29T12:20:08;98724.50;;;-0.84;55.36
40918;BME280;26644;50.248;19.032;2023-01-29T12:23:30;98790.91;;;-0.41;55.10
40918;BME280;26644;50.248;19.032;2023-01-29T12:26:48;98783.38;;;-0.59;55.54
40918;BME280;26644;50.248;19.032;2023-01-29T12:30:06;98776.28;;;-0.60;56.09
40918;BME280;26644;50.248;19.032;2023-01-29T12:33:26;98748.38;;;-0.81;54.75
40918;BME280;26644;50.248;19.032;2023-01-29T12:36:45;98779.94;;;-0.75;54.50
40918;BME280;26644;50.248;19.032;2023-01-29T12:40:01;98767.88;;;-0.79;54.86
40918;BME280;26644;50.248;19.032;2023-01-29T12:43:15;98760.84;;;-0.73;55.10
40918;BME280;26644;50.248;19.032;2023-01-29T12:46:26;98762.72;;;-0.74;54.89
40918;BME280;26644;50.248;19.032;2023-01-29T12:49:38;98762.91;;;-0.75;54.95
40918;BME280;26644;50.248;19.032;2023-01-29T12:52:50;98763.47;;;-0.86;54.97
40918;BME280;26644;50.248;19.032;2023-01-29T12:56:11;98754.56;;;-0.87;55.33
40918;BME280;26644;50.248;19.032;2023-01-29T12:59:27;98752.31;;;-0.77;55.56
40918;BME280;26644;50.248;19.032;2023-01-29T13:02:47;98751.94;;;-0.74;55.26
40918;BME280;26644;50.248;19.032;2023-01-29T13:06:02;98738.72;;;-0.68;54.94
40918;BME280;26644;50.248;19.032;2023-01-29T13:09:18;98740.53;;;-0.69;54.92
40918;BME280;26644;50.248;19.032;2023-01-29T13:12:33;98740.63;;;-0.55;54.75
40918;BME280;26644;50.248;19.032;2023-01-29T13:15:42;98733.63;;;-0.50;54.47
40918;BME280;26644;50.248;19.032;2023-01-29T13:18:54;98725.56;;;-0.36;54.07
40918;BME280;26644;50.248;19.032;2023-01-29T13:22:04;98734.09;;;-0.26;53.73
40918;BME280;26644;50.248;19.032;2023-01-29T13:25:21;98728.31;;;-0.30;53.36
40918;BME280;26644;50.248;19.032;2023-01-29T13:28:29;98721.03;;;-0.23;53.46
40918;BME280;26644;50.248;19.032;2023-01-29T13:31:38;98722.50;;;-0.20;53.20
40918;BME280;26644;50.248;19.032;2023-01-29T13:34:48;98711.50;;;-0.25;53.38
40918;BME280;26644;50.248;19.032;2023-01-29T13:37:56;98720.25;;;-0.10;53.45
40918;BME280;26644;50.248;19.032;2023-01-29T13:41:04;98724.66;;;-0.02;52.97
40918;BME280;26644;50.248;19.032;2023-01-29T13:44:22;98721.34;;;0.09;53.04
40918;BME280;26644;50.248;19.032;2023-01-29T13:47:33;98667.72;;;-0.20;52.92
40918;BME280;26644;50.248;19.032;2023-01-29T13:50:45;98696.59;;;-0.01;53.24
40918;BME280;26644;50.248;19.032;2023-01-29T13:53:54;98676.06;;;-0.02;53.44
40918;BME280;26644;50.248;19.032;2023-01-29T13:57:04;98689.56;;;0.05;53.04
40918;BME280;26644;50.248;19.032;2023-01-29T14:00:56;98685.81;;;-0.01;53.52
40918;BME280;26644;50.248;19.032;2023-01-29T14:04:19;98683.72;;;-0.05;53.80
40918;BME280;26644;50.248;19.032;2023-01-29T14:07:46;98697.66;;;-0.02;53.82
40918;BME280;26644;50.248;19.032;2023-01-29T14:11:27;98692.25;;;-0.09;53.80
40918;BME280;26644;50.248;19.032;2023-01-29T14:15:03;98686.84;;;-0.15;54.23
40918;BME280;26644;50.248;19.032;2023-01-29T14:18:24;98673.06;;;-0.41;54.70
40918;BME280;26644;50.248;19.032;2023-01-29T14:21:32;98688.03;;;-0.31;55.24
40918;BME280;26644;50.248;19.032;2023-01-29T14:24:42;98682.41;;;-0.36;55.39
40918;BME280;26644;50.248;19.032;2023-01-29T14:27:48;98678.03;;;-0.37;56.09
40918;BME280;26644;50.248;19.032;2023-01-29T14:30:54;98682.56;;;-0.45;55.82
40918;BME280;26644;50.248;19.032;2023-01-29T14:34:06;98672.94;;;-0.67;56.26
40918;BME280;26644;50.248;19.032;2023-01-29T14:37:26;98679.59;;;-0.57;56.72
40918;BME280;26644;50.248;19.032;2023-01-29T14:40:36;98680.25;;;-0.54;56.98
40918;BME280;26644;50.248;19.032;2023-01-29T14:43:43;98672.06;;;-0.75;57.37
40918;BME280;26644;50.248;19.032;2023-01-29T14:46:48;98681.63;;;-0.72;57.35
40918;BME280;26644;50.248;19.032;2023-01-29T14:49:58;98663.03;;;-0.95;57.41
40918;BME280;26644;50.248;19.032;2023-01-29T14:53:11;98685.69;;;-0.89;58.04
40918;BME280;26644;50.248;19.032;2023-01-29T14:56:30;98678.03;;;-0.86;57.79
40918;BME280;26644;50.248;19.032;2023-01-29T14:59:48;98674.72;;;-0.88;58.02
40918;BME280;26644;50.248;19.032;2023-01-29T15:03:01;98671.34;;;-0.97;58.00
40918;BME280;26644;50.248;19.032;2023-01-29T15:06:24;98691.66;;;-0.94;57.92
40918;BME280;26644;50.248;19.032;2023-01-29T15:09:41;98673.16;;;-1.04;58.03
40918;BME280;26644;50.248;19.032;2023-01-29T15:12:59;98688.53;;;-0.98;58.23
40918;BME280;26644;50.248;19.032;2023-01-29T15:16:15;98679.63;;;-0.98;58.32
40918;BME280;26644;50.248;19.032;2023-01-29T15:19:30;98667.97;;;-1.05;58.64
40918;BME280;26644;50.248;19.032;2023-01-29T15:22:46;98667.50;;;-1.16;58.94
40918;BME280;26644;50.248;19.032;2023-01-29T15:25:54;98674.94;;;-1.18;58.74
40918;BME280;26644;50.248;19.032;2023-01-29T15:29:02;98637.66;;;-1.49;59.06
40918;BME280;26644;50.248;19.032;2023-01-29T15:32:15;98674.69;;;-1.23;58.82
40918;BME280;26644;50.248;19.032;2023-01-29T15:35:35;98658.25;;;-1.35;59.22
40918;BME280;26644;50.248;19.032;2023-01-29T15:38:44;98669.75;;;-1.19;59.04
40918;BME280;26644;50.248;19.032;2023-01-29T15:42:11;98673.47;;;-1.20;59.27
40918;BME280;26644;50.248;19.032;2023-01-29T15:45:28;98661.63;;;-1.26;59.18
40918;BME280;26644;50.248;19.032;2023-01-29T15:48:39;98664.59;;;-1.14;59.26
40918;BME280;26644;50.248;19.032;2023-01-29T15:51:47;98640.56;;;-1.16;59.46
40918;BME280;26644;50.248;19.032;2023-01-29T15:55:03;98622.06;;;-1.19;59.26
40918;BME280;26644;50.248;19.032;2023-01-29T15:58:16;98619.16;;;-1.24;59.63
40918;BME280;26644;50.248;19.032;2023-01-29T16:01:28;98636.03;;;-1.09;59.61
40918;BME280;26644;50.248;19.032;2023-01-29T16:04:33;98641.44;;;-1.02;59.32
40918;BME280;26644;50.248;19.032;2023-01-29T16:07:40;98635.69;;;-0.99;59.32
40918;BME280;26644;50.248;19.032;2023-01-29T16:10:53;98634.81;;;-0.99;59.40
40918;BME280;26644;50.248;19.032;2023-01-29T16:14:01;98643.75;;;-0.99;59.11
40918;BME280;26644;50.248;19.032;2023-01-29T16:17:22;98627.13;;;-1.09;59.40
40918;BME280;26644;50.248;19.032;2023-01-29T16:20:43;98618.19;;;-1.10;59.57
40918;BME280;26644;50.248;19.032;2023-01-29T16:23:57;98620.50;;;-1.07;59.78
40918;BME280;26644;50.248;19.032;2023-01-29T16:27:12;98619.78;;;-1.22;60.47
40918;BME280;26644;50.248;19.032;2023-01-29T16:30:18;98625.16;;;-1.22;60.66
40918;BME280;26644;50.248;19.032;2023-01-29T16:33:33;98621.78;;;-1.31;60.67
40918;BME280;26644;50.248;19.032;2023-01-29T16:36:45;98612.66;;;-1.36;61.08
40918;BME280;26644;50.248;19.032;2023-01-29T16:39:53;98619.31;;;-1.32;61.10
40918;BME280;26644;50.248;19.032;2023-01-29T16:43:44;98631.94;;;-1.33;61.13
40918;BME280;26644;50.248;19.032;2023-01-29T16:46:53;98630.53;;;-1.29;60.95
40918;BME280;26644;50.248;19.032;2023-01-29T16:50:00;98619.09;;;-1.31;60.89